Terminal Aerodrome Forecast
Issued by NWS

Home | Current Version | Previous Version | Graphics & Text | Print | Product List | Glossary On
Versions: 1 2 3 4 5 6 7 8 9 10 11 12 13
000
FTUS45 KGGW 181729
TAFSDY
TAF
KSDY 181729Z 1818/1918 03007KT P6SM BKN060
     FM182100 07007KT P6SM OVC035
     FM190300 07005KT P6SM BKN015
     FM190600 06005KT P6SM BKN020
     FM191200 06005KT P6SM BKN040
     FM191500 08006KT P6SM BKN020=

USA.gov is the U.S. government's official web portal to all federal, state and local government web resources and services.